Time;durP1;ratioP1;P1;durP2;ratioP2;P2;SDS_P1;SDS_P2;PMS_P1;PMS_P2;Temp;Humidity;BMP_temperature;BMP_pressure;BME280_temperature;BME280_humidity;BME280_pressure;Samples;Min_cycle;Max_cycle;Signal;HPM_P1;HPM_P2
2023/08/10 00:01:30;;;;;;;7.22;1.55;;;12.80;99.90;;;;;;5061445;28;20155;-66
2023/08/10 00:03:56;;;;;;;9.15;1.50;;;12.80;99.90;;;;;;5047699;28;20056;-66
2023/08/10 00:06:22;;;;;;;14.38;2.95;;;12.70;99.90;;;;;;5050256;28;20098;-66
2023/08/10 00:08:49;;;;;;;6.35;1.75;;;12.70;99.90;;;;;;5066033;28;20391;-65
2023/08/10 00:11:15;;;;;;;3.20;1.48;;;12.70;99.90;;;;;;5052504;28;20051;-66
2023/08/10 00:13:41;;;;;;;4.00;1.42;;;12.70;99.90;;;;;;5068020;28;20491;-66
2023/08/10 00:16:07;;;;;;;6.53;1.42;;;12.70;99.90;;;;;;5050497;28;20336;-66
2023/08/10 00:18:33;;;;;;;3.58;0.93;;;12.70;99.90;;;;;;5055015;28;20050;-66
2023/08/10 00:20:59;;;;;;;8.63;1.52;;;12.70;99.90;;;;;;5066660;28;20043;-66
2023/08/10 00:23:25;;;;;;;5.55;1.73;;;12.60;99.90;;;;;;5062685;28;20134;-66
2023/08/10 00:25:51;;;;;;;5.22;1.77;;;12.60;99.90;;;;;;5068628;28;20083;-66
2023/08/10 00:28:16;;;;;;;4.05;1.40;;;12.60;99.90;;;;;;5085151;28;20036;-66
2023/08/10 00:30:42;;;;;;;4.68;1.33;;;12.60;99.90;;;;;;5071112;28;20032;-66
2023/08/10 00:33:08;;;;;;;6.50;1.70;;;12.60;99.90;;;;;;5049086;28;20063;-66
2023/08/10 00:35:38;;;;;;;8.30;1.83;;;12.60;99.90;;;;;;5067520;28;20040;-66
2023/08/10 00:38:04;;;;;;;5.32;1.30;;;12.60;99.90;;;;;;5052543;28;20051;-66
2023/08/10 00:40:30;;;;;;;5.97;1.77;;;12.60;99.90;;;;;;5066156;28;20127;-66
2023/08/10 00:42:58;;;;;;;5.65;1.70;;;12.60;99.90;;;;;;5066819;28;20048;-66
2023/08/10 00:45:24;;;;;;;5.15;1.67;;;12.60;99.90;;;;;;5065855;28;20529;-66
2023/08/10 00:47:52;;;;;;;3.30;1.50;;;12.60;99.90;;;;;;5067800;28;20052;-66
2023/08/10 00:50:18;;;;;;;3.38;1.20;;;12.60;99.90;;;;;;5063943;28;20044;-65
2023/08/10 00:52:44;;;;;;;10.15;2.25;;;12.60;99.90;;;;;;5059225;28;20075;-66
2023/08/10 00:55:10;;;;;;;9.02;1.83;;;12.60;99.90;;;;;;5059767;28;20041;-66
2023/08/10 00:57:37;;;;;;;15.23;1.67;;;12.60;99.90;;;;;;5067580;28;20088;-66
2023/08/10 01:00:05;;;;;;;3.17;1.17;;;12.50;99.90;;;;;;5066070;28;20056;-66
2023/08/10 01:02:31;;;;;;;4.25;1.17;;;12.50;99.90;;;;;;5066779;28;20158;-66
2023/08/10 01:04:57;;;;;;;3.13;1.23;;;12.50;99.90;;;;;;5067358;28;20049;-66
2023/08/10 01:07:39;;;;;;;3.15;1.15;;;12.40;99.90;;;;;;5064059;28;20782;-66
2023/08/10 01:10:10;;;;;;;7.38;1.48;;;12.30;99.90;;;;;;5066847;28;20052;-66
2023/08/10 01:12:44;;;;;;;4.00;1.35;;;12.30;99.90;;;;;;5065158;28;20123;-66
2023/08/10 01:15:25;;;;;;;7.30;1.80;;;12.30;99.90;;;;;;5065243;28;20060;-66
2023/08/10 01:17:52;;;;;;;5.47;1.42;;;12.30;99.90;;;;;;5065930;28;20375;-66
2023/08/10 01:20:23;;;;;;;3.72;1.20;;;12.30;99.90;;;;;;5063658;28;20497;-66
2023/08/10 01:23:01;;;;;;;7.65;1.60;;;12.20;99.90;;;;;;5066808;28;20131;-66
2023/08/10 01:25:28;;;;;;;8.52;1.90;;;12.20;99.90;;;;;;5065862;28;20445;-66
2023/08/10 01:27:54;;;;;;;4.95;1.67;;;12.10;99.90;;;;;;5067071;28;20102;-66
2023/08/10 01:30:20;;;;;;;10.00;1.40;;;12.20;99.90;;;;;;5081621;28;20049;-66
2023/08/10 01:32:46;;;;;;;3.47;1.23;;;12.10;99.90;;;;;;5065683;28;20049;-66
2023/08/10 01:35:12;;;;;;;3.63;1.45;;;12.10;99.90;;;;;;5053774;28;20036;-66
2023/08/10 01:37:39;;;;;;;8.82;1.60;;;12.10;99.90;;;;;;5065651;28;20399;-66
2023/08/10 01:40:13;;;;;;;3.83;1.52;;;12.10;99.90;;;;;;5066573;28;20102;-66
2023/08/10 01:42:41;;;;;;;4.32;1.50;;;12.10;99.90;;;;;;5063495;28;20061;-66
2023/08/10 01:45:08;;;;;;;4.65;1.25;;;12.10;99.90;;;;;;5065234;28;20052;-66
2023/08/10 01:47:42;;;;;;;8.00;1.65;;;12.10;99.90;;;;;;5066127;28;20048;-66
2023/08/10 01:50:08;;;;;;;8.70;1.60;;;12.00;99.90;;;;;;5066443;28;20049;-66
2023/08/10 01:52:41;;;;;;;2.45;1.20;;;12.00;99.90;;;;;;5070524;28;20086;-66
2023/08/10 01:55:09;;;;;;;5.60;1.33;;;12.00;99.90;;;;;;5067273;28;20041;-66
2023/08/10 01:57:36;;;;;;;4.32;1.58;;;12.00;99.90;;;;;;5070369;28;20059;-66
2023/08/10 02:00:02;;;;;;;9.70;2.25;;;11.90;99.90;;;;;;5067178;28;20068;-66
2023/08/10 02:02:29;;;;;;;4.90;1.40;;;11.90;99.90;;;;;;5070468;28;20394;-66
2023/08/10 02:04:54;;;;;;;2.55;1.45;;;11.90;99.90;;;;;;5069937;28;20064;-66
2023/08/10 02:07:20;;;;;;;2.55;1.10;;;11.90;99.90;;;;;;5068491;28;20044;-66
2023/08/10 02:09:46;;;;;;;1.80;1.17;;;11.80;99.90;;;;;;5068780;28;20047;-66
2023/08/10 02:12:11;;;;;;;6.50;1.35;;;11.80;99.90;;;;;;5068356;28;20048;-66
2023/08/10 02:14:37;;;;;;;6.47;1.40;;;11.90;99.90;;;;;;5085571;28;20033;-66
2023/08/10 02:17:03;;;;;;;1.92;1.02;;;11.80;99.90;;;;;;5084070;28;20044;-66
2023/08/10 02:19:29;;;;;;;2.65;1.23;;;11.70;99.90;;;;;;5069607;28;20076;-66
2023/08/10 02:21:54;;;;;;;4.78;1.30;;;11.70;99.90;;;;;;5068955;28;20040;-66
2023/08/10 02:24:20;;;;;;;5.07;1.27;;;11.70;99.90;;;;;;5069335;28;20048;-66
2023/08/10 02:26:46;;;;;;;6.32;1.70;;;11.70;99.90;;;;;;5069790;28;20032;-66
2023/08/10 02:29:12;;;;;;;3.65;1.73;;;11.60;99.90;;;;;;5067695;28;20078;-66
2023/08/10 02:31:37;;;;;;;4.00;1.30;;;11.60;99.90;;;;;;5065018;28;20037;-66
2023/08/10 02:34:03;;;;;;;3.17;1.20;;;11.60;99.90;;;;;;5059872;28;20056;-66
2023/08/10 02:36:29;;;;;;;3.90;1.05;;;11.60;99.90;;;;;;5069752;28;20048;-66
2023/08/10 02:38:55;;;;;;;2.10;1.30;;;11.60;99.90;;;;;;5065864;28;20402;-66
2023/08/10 02:41:20;;;;;;;5.43;1.65;;;11.60;99.90;;;;;;5069406;28;20043;-66
2023/08/10 02:43:46;;;;;;;7.95;1.50;;;11.60;99.90;;;;;;5069409;28;20541;-66
2023/08/10 02:46:12;;;;;;;2.08;1.00;;;11.70;99.90;;;;;;5068356;28;20047;-66
2023/08/10 02:48:38;;;;;;;4.55;1.38;;;11.70;99.90;;;;;;5069330;28;20063;-66
2023/08/10 02:51:04;;;;;;;5.00;1.25;;;11.70;99.90;;;;;;5066676;28;20078;-66
2023/08/10 02:53:30;;;;;;;6.20;1.63;;;11.70;99.90;;;;;;5069070;28;20490;-66
2023/08/10 02:55:55;;;;;;;2.42;1.20;;;11.70;99.90;;;;;;5066881;28;20043;-66
2023/08/10 02:58:21;;;;;;;4.72;1.17;;;11.80;99.90;;;;;;5068899;28;20055;-66
2023/08/10 03:00:48;;;;;;;2.50;1.27;;;11.80;99.90;;;;;;5067546;28;20064;-65
2023/08/10 03:03:14;;;;;;;4.90;1.45;;;11.80;99.90;;;;;;5068177;28;20044;-66
2023/08/10 03:05:40;;;;;;;4.25;1.30;;;11.80;99.90;;;;;;5069075;28;20474;-66
2023/08/10 03:08:06;;;;;;;11.23;1.40;;;11.80;99.90;;;;;;5066704;28;20460;-66
2023/08/10 03:10:31;;;;;;;2.25;1.30;;;11.90;99.90;;;;;;5055332;28;20045;-66
2023/08/10 03:12:57;;;;;;;6.22;1.35;;;11.80;99.90;;;;;;5067469;28;20052;-66
2023/08/10 03:15:23;;;;;;;3.10;1.25;;;11.80;99.90;;;;;;5068999;28;20451;-66
2023/08/10 03:17:48;;;;;;;2.05;1.50;;;11.80;99.90;;;;;;5082386;28;20033;-66
2023/08/10 03:20:16;;;;;;;5.63;0.88;;;11.80;99.90;;;;;;5068946;28;20046;-66
2023/08/10 03:22:43;;;;;;;5.75;1.55;;;11.90;99.90;;;;;;5067966;28;20459;-66
2023/08/10 03:25:09;;;;;;;3.85;1.05;;;11.90;99.90;;;;;;5067084;28;20390;-66
2023/08/10 03:27:35;;;;;;;6.60;1.55;;;11.90;99.90;;;;;;5068527;28;20037;-66
2023/08/10 03:30:03;;;;;;;3.20;1.35;;;11.90;99.90;;;;;;5066759;28;20040;-66
2023/08/10 03:32:29;;;;;;;2.78;1.33;;;11.90;99.90;;;;;;5067244;28;20115;-66
2023/08/10 03:34:55;;;;;;;5.70;1.40;;;12.00;99.90;;;;;;5067267;28;20044;-66
2023/08/10 03:37:20;;;;;;;4.90;1.75;;;12.00;99.90;;;;;;5068597;28;20150;-66
2023/08/10 03:39:46;;;;;;;3.35;1.45;;;12.00;99.90;;;;;;5067470;28;20532;-65
2023/08/10 03:42:12;;;;;;;12.38;1.52;;;12.00;99.90;;;;;;5067764;28;20454;-66
2023/08/10 03:44:38;;;;;;;5.50;1.27;;;12.10;99.90;;;;;;5053596;28;20051;-66
2023/08/10 03:47:04;;;;;;;6.15;1.70;;;12.10;99.90;;;;;;5067545;28;20119;-66
2023/08/10 03:49:29;;;;;;;9.82;1.23;;;12.20;99.90;;;;;;5068242;28;20420;-66
2023/08/10 03:51:55;;;;;;;3.20;1.40;;;12.20;99.90;;;;;;5066430;28;20076;-66
2023/08/10 03:54:21;;;;;;;7.15;1.52;;;12.20;99.90;;;;;;5068180;28;20059;-66
2023/08/10 03:56:47;;;;;;;4.07;1.60;;;12.20;99.90;;;;;;5066655;28;20445;-66
2023/08/10 03:59:13;;;;;;;7.45;1.40;;;12.20;99.90;;;;;;5068399;28;20033;-66
2023/08/10 04:01:41;;;;;;;3.42;1.27;;;12.30;99.90;;;;;;5066763;28;20514;-66
2023/08/10 04:04:07;;;;;;;2.80;1.17;;;12.30;99.90;;;;;;5052628;28;20171;-66
2023/08/10 04:06:33;;;;;;;2.75;1.40;;;12.40;99.90;;;;;;5067864;28;20095;-66
2023/08/10 04:08:58;;;;;;;4.15;1.20;;;12.40;99.90;;;;;;5065544;28;20105;-65
2023/08/10 04:11:24;;;;;;;12.30;1.70;;;12.40;99.90;;;;;;5054647;28;20044;-66
2023/08/10 04:13:50;;;;;;;6.22;1.60;;;12.40;99.90;;;;;;5064603;28;20055;-65
2023/08/10 04:16:16;;;;;;;3.88;1.40;;;12.40;99.90;;;;;;5067849;28;20036;-66
2023/08/10 04:18:42;;;;;;;2.45;1.45;;;12.50;99.90;;;;;;5066411;28;20048;-66
2023/08/10 04:21:08;;;;;;;7.38;1.60;;;12.50;99.90;;;;;;5067892;28;20094;-65
2023/08/10 04:23:34;;;;;;;11.27;1.63;;;12.50;99.90;;;;;;5067305;28;20048;-65
2023/08/10 04:25:59;;;;;;;4.78;1.48;;;12.50;99.90;;;;;;5065320;28;20045;-65
2023/08/10 04:28:25;;;;;;;7.05;1.45;;;12.50;99.90;;;;;;5067508;28;20056;-66
2023/08/10 04:30:51;;;;;;;3.47;1.27;;;12.50;99.90;;;;;;5081788;28;20044;-65
2023/08/10 04:33:17;;;;;;;4.00;1.35;;;12.60;99.90;;;;;;5067772;28;20048;-65
2023/08/10 04:35:42;;;;;;;4.18;1.23;;;12.60;99.90;;;;;;5065843;28;20048;-66
2023/08/10 04:38:10;;;;;;;5.28;1.50;;;12.70;99.90;;;;;;5067700;28;20099;-66
2023/08/10 04:40:35;;;;;;;7.07;1.63;;;12.60;99.90;;;;;;5066444;28;20041;-66
2023/08/10 04:43:01;;;;;;;10.38;1.55;;;12.70;99.90;;;;;;5065698;28;20055;-65
2023/08/10 04:45:27;;;;;;;4.35;1.30;;;12.70;99.90;;;;;;5063330;28;20090;-65
2023/08/10 04:47:53;;;;;;;3.40;1.23;;;12.70;99.90;;;;;;5066149;28;20048;-66
2023/08/10 04:50:18;;;;;;;9.52;1.27;;;12.70;99.90;;;;;;5067706;28;20471;-66
2023/08/10 04:52:44;;;;;;;6.80;1.30;;;12.80;99.90;;;;;;5065692;28;20056;-65
2023/08/10 04:55:13;;;;;;;2.47;1.00;;;12.80;99.90;;;;;;5067085;28;20126;-66
2023/08/10 04:57:39;;;;;;;4.30;1.30;;;12.80;99.90;;;;;;5064982;28;20040;-66
2023/08/10 05:00:09;;;;;;;4.85;1.20;;;12.80;99.90;;;;;;5067247;28;20059;-66
2023/08/10 05:02:36;;;;;;;5.70;1.42;;;12.90;99.90;;;;;;5068866;28;20478;-71
2023/08/10 05:05:03;;;;;;;4.95;1.35;;;12.90;99.90;;;;;;5066051;28;20044;-66
2023/08/10 05:07:29;;;;;;;4.63;1.40;;;13.00;99.90;;;;;;5067774;28;20049;-66
2023/08/10 05:09:55;;;;;;;9.35;1.67;;;13.00;99.90;;;;;;5057164;28;20482;-66
2023/08/10 05:12:21;;;;;;;5.15;1.40;;;13.10;99.90;;;;;;5061899;28;20106;-66
2023/08/10 05:14:47;;;;;;;5.38;1.40;;;13.10;99.90;;;;;;5064365;28;20504;-66
2023/08/10 05:17:12;;;;;;;2.60;1.17;;;13.20;99.90;;;;;;5066884;28;20048;-66
2023/08/10 05:19:38;;;;;;;3.97;1.38;;;13.20;99.90;;;;;;5066098;28;20051;-65
2023/08/10 05:22:04;;;;;;;1.17;1.10;;;13.30;99.90;;;;;;5054336;28;20049;-65
2023/08/10 05:24:32;;;;;;;3.58;1.85;;;13.30;99.90;;;;;;5062230;28;20032;-66
2023/08/10 05:26:58;;;;;;;2.78;1.40;;;13.40;99.90;;;;;;5069196;28;20037;-66
2023/08/10 05:29:24;;;;;;;4.47;1.30;;;13.40;99.90;;;;;;5069809;28;20052;-66
2023/08/10 05:31:50;;;;;;;3.05;1.45;;;13.40;99.90;;;;;;5069411;28;20040;-66
2023/08/10 05:34:15;;;;;;;3.83;1.33;;;13.50;99.90;;;;;;5069780;28;20048;-66
2023/08/10 05:36:41;;;;;;;7.93;1.80;;;13.60;99.90;;;;;;5067673;28;20036;-66
2023/08/10 05:39:08;;;;;;;2.92;1.30;;;13.70;99.90;;;;;;5069354;28;20084;-66
2023/08/10 05:41:34;;;;;;;10.13;2.08;;;13.70;99.90;;;;;;5070625;28;20037;-66
2023/08/10 05:43:59;;;;;;;7.38;1.40;;;13.80;99.90;;;;;;5051065;28;20051;-66
2023/08/10 05:46:25;;;;;;;2.45;1.30;;;13.90;99.90;;;;;;5069621;28;20170;-66
2023/08/10 05:48:51;;;;;;;4.72;1.20;;;14.10;99.90;;;;;;5067144;28;20083;-66
2023/08/10 05:51:17;;;;;;;9.60;1.75;;;14.20;99.90;;;;;;5070735;28;20056;-85
2023/08/10 05:53:43;;;;;;;4.93;1.20;;;14.30;99.90;;;;;;5068612;28;20055;-66
2023/08/10 05:56:10;;;;;;;8.02;1.23;;;14.40;99.90;;;;;;5059459;28;20525;-66
2023/08/10 05:58:36;;;;;;;7.72;1.55;;;14.50;99.90;;;;;;5067010;28;20048;-66
2023/08/10 06:01:03;;;;;;;3.33;1.27;;;14.60;99.90;;;;;;5069393;28;20488;-66
2023/08/10 06:03:29;;;;;;;3.60;1.70;;;14.70;99.90;;;;;;5085710;28;20051;-66
2023/08/10 06:05:55;;;;;;;4.78;1.40;;;14.70;99.90;;;;;;5068525;28;20036;-66
2023/08/10 06:08:22;;;;;;;4.65;1.15;;;14.80;99.90;;;;;;5068802;28;20536;-66
2023/08/10 06:10:51;;;;;;;3.20;1.50;;;14.90;99.90;;;;;;5052658;28;20150;-66
2023/08/10 06:13:20;;;;;;;7.90;1.80;;;15.00;99.90;;;;;;5069243;28;20037;-66
2023/08/10 06:15:49;;;;;;;12.18;1.60;;;15.10;99.90;;;;;;5068977;28;20752;-66
2023/08/10 06:18:14;;;;;;;13.00;1.50;;;15.10;99.90;;;;;;5069493;28;20465;-66
2023/08/10 06:20:40;;;;;;;7.10;1.05;;;15.20;99.90;;;;;;5070351;28;20449;-65
2023/08/10 06:23:06;;;;;;;1.77;0.90;;;15.30;99.90;;;;;;5054264;28;20445;-67
2023/08/10 06:25:33;;;;;;;3.22;1.15;;;15.40;99.90;;;;;;5069891;28;20124;-67
2023/08/10 06:27:59;;;;;;;7.13;1.52;;;15.50;99.90;;;;;;5067883;28;20045;-67
2023/08/10 06:30:25;;;;;;;8.48;1.10;;;15.60;99.90;;;;;;5069979;28;20091;-67
2023/08/10 06:32:51;;;;;;;9.48;1.52;;;15.70;99.90;;;;;;5057245;28;20095;-67
2023/08/10 06:35:19;;;;;;;6.35;1.25;;;15.70;99.90;;;;;;5062563;28;20083;-67
2023/08/10 06:37:45;;;;;;;5.53;1.40;;;15.80;99.90;;;;;;5075051;28;20497;-67
2023/08/10 06:40:11;;;;;;;6.72;1.20;;;15.80;99.90;;;;;;5054604;28;20109;-67
2023/08/10 06:42:37;;;;;;;9.50;1.33;;;15.90;99.90;;;;;;5085751;28;20044;-66
2023/08/10 06:45:04;;;;;;;7.32;0.93;;;16.00;99.90;;;;;;5067279;28;20048;-67
2023/08/10 06:47:31;;;;;;;3.33;1.05;;;16.10;99.90;;;;;;5059570;28;20076;-67
2023/08/10 06:49:57;;;;;;;10.65;1.30;;;16.20;99.90;;;;;;5067166;28;20373;-66
2023/08/10 06:52:24;;;;;;;13.63;1.45;;;16.20;99.90;;;;;;5061712;28;20059;-68
2023/08/10 06:54:52;;;;;;;4.57;1.23;;;16.30;99.90;;;;;;5049034;28;20055;-67
2023/08/10 06:57:19;;;;;;;5.00;1.25;;;16.40;99.90;;;;;;5070050;28;20083;-67
2023/08/10 06:59:45;;;;;;;4.50;1.30;;;16.40;99.90;;;;;;5074355;28;20502;-66
2023/08/10 07:02:11;;;;;;;7.78;1.42;;;16.60;99.90;;;;;;5073133;28;20047;-66
2023/08/10 07:04:37;;;;;;;3.60;1.45;;;16.70;99.90;;;;;;5078218;28;20433;-67
2023/08/10 07:07:03;;;;;;;3.85;1.20;;;16.80;99.90;;;;;;5075617;28;20105;-66
2023/08/10 07:09:28;;;;;;;7.03;0.90;;;16.80;99.90;;;;;;5062918;28;20087;-66
2023/08/10 07:11:54;;;;;;;6.95;1.85;;;16.90;99.90;;;;;;5058427;28;20044;-66
2023/08/10 07:14:20;;;;;;;6.68;1.20;;;16.80;99.90;;;;;;5084088;28;20048;-67
2023/08/10 07:16:46;;;;;;;3.35;1.00;;;16.80;99.90;;;;;;5068553;28;20043;-66
2023/08/10 07:19:11;;;;;;;7.65;1.10;;;16.90;99.90;;;;;;5066930;28;20070;-66
2023/08/10 07:21:37;;;;;;;3.70;1.00;;;17.10;99.90;;;;;;5062283;28;20593;-65
2023/08/10 07:24:05;;;;;;;2.85;0.95;;;17.20;99.90;;;;;;5060009;28;20490;-66
2023/08/10 07:26:32;;;;;;;5.55;1.30;;;17.40;99.90;;;;;;5068204;28;20049;-66
2023/08/10 07:28:57;;;;;;;9.00;1.50;;;17.60;99.90;;;;;;5066761;28;20392;-66
2023/08/10 07:31:26;;;;;;;8.95;1.30;;;17.80;99.90;;;;;;5068622;28;20047;-66
2023/08/10 07:33:52;;;;;;;8.30;1.05;;;18.00;99.90;;;;;;5066927;28;20478;-66
2023/08/10 07:36:17;;;;;;;9.07;1.77;;;18.30;99.90;;;;;;5065478;28;20057;-66
2023/08/10 07:38:43;;;;;;;8.93;1.30;;;18.50;99.90;;;;;;5068402;28;20040;-66
2023/08/10 07:41:09;;;;;;;5.43;1.23;;;18.70;99.90;;;;;;5065061;28;20043;-66
2023/08/10 07:43:34;;;;;;;9.27;1.13;;;19.00;99.90;;;;;;5068308;28;20059;-66
2023/08/10 07:46:00;;;;;;;1.58;1.10;;;19.20;94.30;;;;;;5066794;28;20051;-66
2023/08/10 07:48:26;;;;;;;4.68;1.13;;;19.30;90.10;;;;;;5062997;28;20119;-66
2023/08/10 07:50:52;;;;;;;6.35;1.05;;;19.50;82.50;;;;;;5067766;28;20089;-66
2023/08/10 07:53:18;;;;;;;3.58;0.80;;;19.60;75.60;;;;;;5065858;28;20055;-66
2023/08/10 07:55:44;;;;;;;4.18;1.00;;;19.80;71.30;;;;;;5066828;28;20044;-66
2023/08/10 07:58:09;;;;;;;8.48;1.27;;;20.00;76.30;;;;;;5066755;28;20044;-66
2023/08/10 08:00:38;;;;;;;5.20;1.00;;;20.20;53.00;;;;;;5067618;28;20402;-67
2023/08/10 08:03:04;;;;;;;4.63;1.65;;;20.40;59.60;;;;;;5062321;28;20506;-66
2023/08/10 08:05:30;;;;;;;3.05;1.15;;;20.40;50.70;;;;;;5059065;28;20369;-66
2023/08/10 08:07:56;;;;;;;4.57;1.52;;;20.30;32.50;;;;;;5065822;28;20098;-66
2023/08/10 08:10:22;;;;;;;9.65;2.03;;;19.90;24.90;;;;;;5064505;28;20045;-66
2023/08/10 08:12:47;;;;;;;5.45;1.52;;;19.60;30.60;;;;;;5065574;28;20040;-66
2023/08/10 08:15:13;;;;;;;12.00;1.33;;;19.40;43.40;;;;;;5065173;28;20754;-66
2023/08/10 08:18:16;;;;;;;5.82;1.33;;;19.40;45.10;;;;;;5065292;28;20101;-67
2023/08/10 08:20:42;;;;;;;2.72;1.08;;;19.20;49.30;;;;;;5059171;28;20072;-67
2023/08/10 08:23:08;;;;;;;4.20;1.10;;;19.00;50.20;;;;;;5082469;28;20123;-67
2023/08/10 08:25:34;;;;;;;7.22;1.17;;;19.00;50.10;;;;;;5066978;28;20045;-66
2023/08/10 08:27:59;;;;;;;6.75;1.10;;;19.10;52.70;;;;;;5069465;28;20039;-66
2023/08/10 08:30:27;;;;;;;9.00;1.20;;;19.10;49.20;;;;;;5067424;28;20044;-66
2023/08/10 08:32:53;;;;;;;4.85;1.30;;;18.90;39.10;;;;;;5067636;28;20446;-67
2023/08/10 08:35:19;;;;;;;6.65;1.10;;;18.70;34.40;;;;;;5071822;28;20127;-67
2023/08/10 08:37:45;;;;;;;4.45;1.13;;;18.50;42.30;;;;;;5063294;28;20041;-66
2023/08/10 08:40:11;;;;;;;8.38;1.00;;;18.40;53.80;;;;;;5077645;28;20043;-66
2023/08/10 08:42:38;;;;;;;9.90;1.10;;;18.20;53.60;;;;;;5064513;28;20510;-66
2023/08/10 08:45:05;;;;;;;2.70;0.93;;;18.10;54.50;;;;;;5060770;28;20127;-67
2023/08/10 08:47:31;;;;;;;5.78;1.23;;;18.00;63.90;;;;;;5069895;28;20037;-67
2023/08/10 08:49:57;;;;;;;5.35;1.10;;;18.10;65.90;;;;;;5057336;28;20087;-67
2023/08/10 08:52:23;;;;;;;6.28;2.00;;;18.50;70.30;;;;;;5065114;28;20467;-67
2023/08/10 08:54:50;;;;;;;6.72;1.30;;;18.80;31.20;;;;;;5057253;28;20392;-67
2023/08/10 08:57:15;;;;;;;3.17;1.00;;;18.70;47.70;;;;;;5062992;28;20051;-67
2023/08/10 08:59:41;;;;;;;7.25;1.17;;;18.90;71.40;;;;;;5054120;28;20044;-67
2023/08/10 09:02:10;;;;;;;5.10;0.98;;;19.10;63.60;;;;;;5073640;28;20498;-67
2023/08/10 09:04:36;;;;;;;6.97;1.17;;;19.30;58.80;;;;;;5066857;28;20052;-67
2023/08/10 09:07:01;;;;;;;9.15;1.27;;;19.60;42.60;;;;;;5070172;28;20047;-67
2023/08/10 09:09:27;;;;;;;5.63;1.17;;;19.80;40.50;;;;;;5064998;28;20041;-67
2023/08/10 09:11:53;;;;;;;5.38;1.10;;;19.90;29.90;;;;;;5062043;28;20401;-67
2023/08/10 09:14:19;;;;;;;5.32;1.42;;;20.00;33.50;;;;;;5063462;28;20040;-67
2023/08/10 09:16:45;;;;;;;4.72;1.23;;;20.20;34.90;;;;;;5064210;28;20048;-67
2023/08/10 09:19:14;;;;;;;5.80;1.00;;;19.70;10.40;;;;;;5048707;28;20118;-67
2023/08/10 09:21:40;;;;;;;6.00;0.88;;;19.30;20.30;;;;;;5048074;28;20040;-67
2023/08/10 09:24:10;;;;;;;5.38;0.88;;;19.10;33.00;;;;;;5066658;28;20053;-67
2023/08/10 09:26:40;;;;;;;5.03;1.27;;;18.90;41.10;;;;;;5066879;28;20611;-67
2023/08/10 09:29:05;;;;;;;;;;;18.70;37.60;;;;;;5065783;28;20054;-67
2023/08/10 09:31:31;;;;;;;1.70;0.95;;;18.60;54.50;;;;;;5063316;28;19925;-67
2023/08/10 09:33:59;;;;;;;6.20;1.08;;;18.70;66.90;;;;;;5054917;28;20045;-67
2023/08/10 09:36:27;;;;;;;4.63;1.00;;;18.80;63.40;;;;;;5061562;28;20101;-67
2023/08/10 09:38:53;;;;;;;3.38;0.80;;;18.90;62.20;;;;;;5047900;28;20124;-67
2023/08/10 09:41:20;;;;;;;3.00;0.90;;;19.00;46.90;;;;;;5063881;28;20047;-66
2023/08/10 09:43:46;;;;;;;4.07;0.88;;;19.10;51.30;;;;;;5045491;28;20047;-67
2023/08/10 09:46:14;;;;;;;3.30;0.80;;;19.20;53.50;;;;;;5060496;28;20043;-67
2023/08/10 09:48:41;;;;;;;3.35;0.90;;;19.30;53.00;;;;;;5064617;28;20068;-66
2023/08/10 09:51:09;;;;;;;3.90;1.02;;;19.20;31.20;;;;;;5074120;28;20431;-71
2023/08/10 09:53:36;;;;;;;3.20;0.90;;;19.20;46.20;;;;;;5064234;28;20363;-67
2023/08/10 09:56:06;;;;;;;3.47;1.05;;;19.20;55.60;;;;;;5073660;28;20043;-67
2023/08/10 09:58:33;;;;;;;2.28;1.05;;;19.30;63.30;;;;;;5076175;28;20056;-67
2023/08/10 10:00:59;;;;;;;7.03;1.00;;;19.60;64.90;;;;;;5072286;28;20060;-67
2023/08/10 10:03:29;;;;;;;3.60;1.10;;;19.80;56.80;;;;;;5063724;28;20041;-67
2023/08/10 10:05:56;;;;;;;5.07;1.20;;;20.00;53.00;;;;;;5069996;28;20095;-67
2023/08/10 10:08:23;;;;;;;4.45;0.85;;;20.10;34.20;;;;;;5060989;28;20047;-67
2023/08/10 10:10:49;;;;;;;3.20;0.77;;;20.00;17.30;;;;;;5054743;28;20048;-67
2023/08/10 10:13:16;;;;;;;3.08;1.08;;;19.90;14.00;;;;;;5067968;28;20086;-67
2023/08/10 10:15:45;;;;;;;4.15;1.00;;;20.00;18.30;;;;;;5067953;28;20399;-66
2023/08/10 10:18:12;;;;;;;3.33;0.77;;;20.10;32.20;;;;;;5069274;28;20053;-67
2023/08/10 10:20:45;;;;;;;4.68;1.08;;;20.30;28.10;;;;;;5068622;28;20047;-67
2023/08/10 10:23:15;;;;;;;4.55;0.93;;;20.30;22.20;;;;;;5070103;28;20052;-67
2023/08/10 10:26:02;;;;;;;3.80;0.73;;;20.20;13.80;;;;;;5054350;28;20060;-76
2023/08/10 10:28:31;;;;;;;1.48;0.70;;;20.10;6.00;;;;;;5057053;28;20040;-67
2023/08/10 10:31:17;;;;;;;6.30;0.90;;;20.00;1.00;;;;;;5069706;28;20064;-66
2023/08/10 10:33:56;;;;;;;3.58;0.82;;;20.00;1.00;;;;;;5071800;28;20032;-67
2023/08/10 10:36:21;;;;;;;2.80;0.70;;;20.10;1.00;;;;;;5051604;28;20067;-66
2023/08/10 10:38:52;;;;;;;2.58;0.80;;;20.10;12.20;;;;;;5067249;28;20776;-66
2023/08/10 10:41:32;;;;;;;3.60;1.00;;;20.10;11.00;;;;;;5078606;28;20135;-66
2023/08/10 10:43:59;;;;;;;1.75;0.70;;;20.20;15.30;;;;;;5080115;28;20048;-66
2023/08/10 10:46:36;;;;;;;2.17;0.60;;;20.30;11.10;;;;;;5068725;28;20079;-71
2023/08/10 10:49:13;;;;;;;2.88;0.75;;;20.40;6.60;;;;;;5070000;28;20460;-66
2023/08/10 10:51:58;;;;;;;1.38;0.52;;;20.40;1.00;;;;;;5079101;28;20048;-67
2023/08/10 10:54:25;;;;;;;3.83;0.70;;;20.50;1.00;;;;;;5066689;28;20048;-66
2023/08/10 10:56:51;;;;;;;1.30;0.57;;;20.50;1.00;;;;;;5076042;28;20032;-67
2023/08/10 10:59:19;;;;;;;2.72;0.60;;;20.50;1.00;;;;;;5075610;28;20487;-68
2023/08/10 11:01:48;;;;;;;2.28;0.98;;;20.50;1.00;;;;;;5071749;28;20040;-67
2023/08/10 11:04:14;;;;;;;1.85;0.80;;;20.40;1.00;;;;;;5073615;28;20058;-67
2023/08/10 11:06:39;;;;;;;2.75;0.70;;;20.40;1.00;;;;;;5080855;28;20040;-66
2023/08/10 11:09:09;;;;;;;2.28;0.75;;;20.40;1.00;;;;;;5071388;28;20128;-65
2023/08/10 11:11:36;;;;;;;1.90;0.82;;;20.40;1.00;;;;;;5062015;28;20049;-66
2023/08/10 11:14:03;;;;;;;2.53;0.63;;;20.40;1.00;;;;;;5067547;28;20123;-66
2023/08/10 11:16:39;;;;;;;2.33;0.70;;;20.40;1.00;;;;;;5067615;28;20036;-66
2023/08/10 11:19:09;;;;;;;3.20;0.90;;;20.50;1.00;;;;;;5061469;28;20103;-66
2023/08/10 11:21:38;;;;;;;2.25;0.50;;;20.40;1.00;;;;;;5053770;28;20048;-68
2023/08/10 11:24:06;;;;;;;2.38;0.70;;;20.40;1.00;;;;;;5067934;28;20056;-68
2023/08/10 11:26:34;;;;;;;3.47;0.75;;;20.40;1.00;;;;;;5064989;28;20102;-65
2023/08/10 11:28:59;;;;;;;2.70;0.60;;;20.50;1.00;;;;;;5069037;28;20072;-65
2023/08/10 11:31:25;;;;;;;1.67;0.60;;;20.50;1.00;;;;;;5064618;28;20068;-65
2023/08/10 11:33:51;;;;;;;1.60;0.70;;;20.60;1.00;;;;;;5056815;28;20029;-65
2023/08/10 11:36:17;;;;;;;1.70;0.60;;;20.60;1.00;;;;;;5050117;28;20269;-65
2023/08/10 11:38:49;;;;;;;6.35;1.73;;;20.70;1.00;;;;;;5054036;28;20051;-66
2023/08/10 11:41:15;;;;;;;1.88;0.90;;;20.70;1.00;;;;;;5062984;28;20102;-65
2023/08/10 11:43:42;;;;;;;2.30;0.60;;;20.70;1.00;;;;;;5061634;28;20036;-66
2023/08/10 11:46:09;;;;;;;6.45;0.77;;;20.60;1.00;;;;;;5055457;28;20411;-66
2023/08/10 11:48:35;;;;;;;5.22;0.60;;;20.60;1.00;;;;;;5063518;28;20130;-66
2023/08/10 11:51:01;;;;;;;3.17;0.60;;;20.60;1.00;;;;;;5061483;28;20539;-65
2023/08/10 11:53:39;;;;;;;0.82;0.50;;;20.50;1.00;;;;;;5068725;28;20226;-66
2023/08/10 11:56:07;;;;;;;4.03;1.00;;;20.40;1.00;;;;;;5064760;28;20114;-65
2023/08/10 11:58:33;;;;;;;2.50;0.68;;;20.40;1.00;;;;;;5071592;28;20044;-66
2023/08/10 12:01:02;;;;;;;0.70;0.50;;;20.40;1.00;;;;;;5084231;28;20063;-66
2023/08/10 12:03:29;;;;;;;5.40;0.45;;;20.30;1.00;;;;;;5082088;28;20135;-65
2023/08/10 12:05:56;;;;;;;3.92;0.75;;;20.30;1.00;;;;;;5086778;28;20048;-65
2023/08/10 12:08:30;;;;;;;4.07;0.70;;;20.40;1.00;;;;;;5060253;28;20067;-70
2023/08/10 12:11:01;;;;;;;1.52;0.60;;;20.40;1.00;;;;;;5052278;28;20055;-66
2023/08/10 12:13:27;;;;;;;4.32;1.13;;;20.40;1.00;;;;;;5066310;28;20082;-65
2023/08/10 12:15:55;;;;;;;0.95;0.70;;;20.50;1.00;;;;;;5067328;28;20481;-65
2023/08/10 12:18:22;;;;;;;2.90;0.55;;;20.50;1.00;;;;;;5076205;28;20048;-65
2023/08/10 12:20:50;;;;;;;1.98;0.60;;;20.50;1.00;;;;;;5066256;28;20098;-65
2023/08/10 12:23:17;;;;;;;3.42;0.60;;;20.60;1.00;;;;;;5066922;28;20052;-65
2023/08/10 12:25:47;;;;;;;4.80;0.55;;;20.60;1.00;;;;;;5070037;28;20049;-65
2023/08/10 12:28:14;;;;;;;0.90;0.40;;;20.60;1.00;;;;;;5066510;28;20437;-65
2023/08/10 12:30:40;;;;;;;1.33;0.40;;;20.70;1.00;;;;;;5065059;28;20036;-66
2023/08/10 12:33:06;;;;;;;4.22;0.57;;;20.80;1.00;;;;;;5069060;28;20036;-66
2023/08/10 12:35:32;;;;;;;0.75;0.47;;;20.90;1.00;;;;;;5069006;28;20372;-66
2023/08/10 12:37:59;;;;;;;1.02;0.40;;;20.90;1.00;;;;;;5073645;28;20036;-65
2023/08/10 12:40:25;;;;;;;2.35;0.50;;;21.00;1.00;;;;;;5077853;28;20046;-66
2023/08/10 12:42:51;;;;;;;1.15;0.60;;;21.00;1.00;;;;;;5068410;28;20049;-65
2023/08/10 12:45:17;;;;;;;4.78;0.55;;;20.90;1.00;;;;;;5085285;28;20076;-65
2023/08/10 12:47:44;;;;;;;1.63;0.60;;;20.90;1.00;;;;;;5085410;28;20756;-66